sensor_id;sensor_type;location;lat;lon;timestamp;P1;durP1;ratioP1;P2;durP2;ratioP2
9124;SDS011;4597;48.730;9.114;2023-06-26T00:00:24;8.93;;;7.67;;
9124;SDS011;4597;48.730;9.114;2023-06-26T00:02:49;8.47;;;7.67;;
9124;SDS011;4597;48.730;9.114;2023-06-26T00:05:15;8.67;;;7.80;;
9124;SDS011;4597;48.730;9.114;2023-06-26T00:07:40;7.93;;;7.10;;
9124;SDS011;4597;48.730;9.114;2023-06-26T00:10:06;7.90;;;7.20;;
9124;SDS011;4597;48.730;9.114;2023-06-26T00:12:32;7.57;;;6.87;;
9124;SDS011;4597;48.730;9.114;2023-06-26T00:14:58;8.00;;;7.20;;
9124;SDS011;4597;48.730;9.114;2023-06-26T00:17:23;7.93;;;6.93;;
9124;SDS011;4597;48.730;9.114;2023-06-26T00:19:49;7.87;;;7.17;;
9124;SDS011;4597;48.730;9.114;2023-06-26T00:22:15;7.80;;;7.10;;
9124;SDS011;4597;48.730;9.114;2023-06-26T00:24:41;7.10;;;6.47;;
9124;SDS011;4597;48.730;9.114;2023-06-26T00:27:06;7.57;;;6.83;;
9124;SDS011;4597;48.730;9.114;2023-06-26T00:29:32;7.47;;;6.87;;
9124;SDS011;4597;48.730;9.114;2023-06-26T00:31:58;7.97;;;7.23;;
9124;SDS011;4597;48.730;9.114;2023-06-26T00:34:23;7.67;;;6.97;;
9124;SDS011;4597;48.730;9.114;2023-06-26T00:36:49;8.27;;;6.67;;
9124;SDS011;4597;48.730;9.114;2023-06-26T00:39:14;7.70;;;7.00;;
9124;SDS011;4597;48.730;9.114;2023-06-26T00:41:40;8.67;;;7.87;;
9124;SDS011;4597;48.730;9.114;2023-06-26T00:44:06;7.50;;;6.73;;
9124;SDS011;4597;48.730;9.114;2023-06-26T00:46:31;8.20;;;7.50;;
9124;SDS011;4597;48.730;9.114;2023-06-26T00:49:01;8.13;;;7.33;;
9124;SDS011;4597;48.730;9.114;2023-06-26T00:51:30;8.50;;;7.80;;
9124;SDS011;4597;48.730;9.114;2023-06-26T00:53:57;8.67;;;7.80;;
9124;SDS011;4597;48.730;9.114;2023-06-26T00:56:23;7.93;;;7.23;;
9124;SDS011;4597;48.730;9.114;2023-06-26T00:58:48;7.90;;;7.20;;
9124;SDS011;4597;48.730;9.114;2023-06-26T01:01:14;7.43;;;6.73;;
9124;SDS011;4597;48.730;9.114;2023-06-26T01:03:40;8.10;;;7.40;;
9124;SDS011;4597;48.730;9.114;2023-06-26T01:06:07;8.13;;;7.30;;
9124;SDS011;4597;48.730;9.114;2023-06-26T01:08:36;8.67;;;7.83;;
9124;SDS011;4597;48.730;9.114;2023-06-26T01:11:02;8.13;;;7.37;;
9124;SDS011;4597;48.730;9.114;2023-06-26T01:13:28;8.10;;;7.40;;
9124;SDS011;4597;48.730;9.114;2023-06-26T01:15:55;7.90;;;7.10;;
9124;SDS011;4597;48.730;9.114;2023-06-26T01:18:22;8.23;;;7.43;;
9124;SDS011;4597;48.730;9.114;2023-06-26T01:20:48;7.47;;;6.87;;
9124;SDS011;4597;48.730;9.114;2023-06-26T01:23:24;10.03;;;7.90;;
9124;SDS011;4597;48.730;9.114;2023-06-26T01:28:42;8.07;;;7.37;;
9124;SDS011;4597;48.730;9.114;2023-06-26T01:31:09;8.40;;;7.53;;
9124;SDS011;4597;48.730;9.114;2023-06-26T01:33:36;8.00;;;7.33;;
9124;SDS011;4597;48.730;9.114;2023-06-26T01:36:02;7.80;;;7.10;;
9124;SDS011;4597;48.730;9.114;2023-06-26T01:38:28;10.43;;;7.87;;
9124;SDS011;4597;48.730;9.114;2023-06-26T01:40:54;7.77;;;7.07;;
9124;SDS011;4597;48.730;9.114;2023-06-26T01:46:18;7.93;;;7.13;;
9124;SDS011;4597;48.730;9.114;2023-06-26T01:48:51;8.40;;;7.60;;
9124;SDS011;4597;48.730;9.114;2023-06-26T01:51:30;7.77;;;7.07;;
9124;SDS011;4597;48.730;9.114;2023-06-26T01:53:59;8.83;;;8.00;;
9124;SDS011;4597;48.730;9.114;2023-06-26T01:56:26;8.20;;;7.50;;
9124;SDS011;4597;48.730;9.114;2023-06-26T01:58:53;8.53;;;7.63;;
9124;SDS011;4597;48.730;9.114;2023-06-26T02:01:20;8.47;;;7.67;;
9124;SDS011;4597;48.730;9.114;2023-06-26T02:03:46;8.53;;;7.77;;
9124;SDS011;4597;48.730;9.114;2023-06-26T02:06:12;9.17;;;8.13;;
9124;SDS011;4597;48.730;9.114;2023-06-26T02:08:38;9.53;;;8.27;;
9124;SDS011;4597;48.730;9.114;2023-06-26T02:11:03;8.80;;;7.90;;
9124;SDS011;4597;48.730;9.114;2023-06-26T02:13:29;9.00;;;8.20;;
9124;SDS011;4597;48.730;9.114;2023-06-26T02:15:54;8.77;;;7.97;;
9124;SDS011;4597;48.730;9.114;2023-06-26T02:18:20;8.87;;;8.00;;
9124;SDS011;4597;48.730;9.114;2023-06-26T02:20:49;9.87;;;7.93;;
9124;SDS011;4597;48.730;9.114;2023-06-26T02:23:14;7.57;;;6.93;;
9124;SDS011;4597;48.730;9.114;2023-06-26T02:25:40;8.10;;;7.40;;
9124;SDS011;4597;48.730;9.114;2023-06-26T02:28:06;8.60;;;7.80;;
9124;SDS011;4597;48.730;9.114;2023-06-26T02:30:31;8.50;;;7.73;;
9124;SDS011;4597;48.730;9.114;2023-06-26T02:32:57;8.50;;;7.70;;
9124;SDS011;4597;48.730;9.114;2023-06-26T02:35:22;8.20;;;7.43;;
9124;SDS011;4597;48.730;9.114;2023-06-26T02:37:48;9.07;;;8.17;;
9124;SDS011;4597;48.730;9.114;2023-06-26T02:40:13;9.30;;;8.40;;
9124;SDS011;4597;48.730;9.114;2023-06-26T02:42:39;7.93;;;7.23;;
9124;SDS011;4597;48.730;9.114;2023-06-26T02:45:04;10.33;;;8.17;;
9124;SDS011;4597;48.730;9.114;2023-06-26T02:47:30;8.30;;;7.60;;
9124;SDS011;4597;48.730;9.114;2023-06-26T02:49:56;7.90;;;7.10;;
9124;SDS011;4597;48.730;9.114;2023-06-26T02:52:21;8.20;;;7.40;;
9124;SDS011;4597;48.730;9.114;2023-06-26T02:54:47;8.50;;;7.70;;
9124;SDS011;4597;48.730;9.114;2023-06-26T02:57:12;8.10;;;7.40;;
9124;SDS011;4597;48.730;9.114;2023-06-26T02:59:39;9.10;;;7.47;;
9124;SDS011;4597;48.730;9.114;2023-06-26T03:02:05;8.23;;;7.43;;
9124;SDS011;4597;48.730;9.114;2023-06-26T03:04:30;8.43;;;7.60;;
9124;SDS011;4597;48.730;9.114;2023-06-26T03:06:56;8.50;;;7.77;;
9124;SDS011;4597;48.730;9.114;2023-06-26T03:09:21;8.60;;;7.90;;
9124;SDS011;4597;48.730;9.114;2023-06-26T03:11:47;8.70;;;7.90;;
9124;SDS011;4597;48.730;9.114;2023-06-26T03:14:13;9.33;;;8.43;;
9124;SDS011;4597;48.730;9.114;2023-06-26T03:16:38;9.63;;;8.73;;
9124;SDS011;4597;48.730;9.114;2023-06-26T03:19:04;9.27;;;8.23;;
9124;SDS011;4597;48.730;9.114;2023-06-26T03:21:30;8.07;;;7.27;;
9124;SDS011;4597;48.730;9.114;2023-06-26T03:23:55;10.43;;;7.90;;
9124;SDS011;4597;48.730;9.114;2023-06-26T03:26:21;9.03;;;8.23;;
9124;SDS011;4597;48.730;9.114;2023-06-26T03:28:52;8.30;;;7.40;;
9124;SDS011;4597;48.730;9.114;2023-06-26T03:31:18;8.03;;;7.30;;
9124;SDS011;4597;48.730;9.114;2023-06-26T03:33:44;9.27;;;7.07;;
9124;SDS011;4597;48.730;9.114;2023-06-26T03:36:10;8.43;;;7.40;;
9124;SDS011;4597;48.730;9.114;2023-06-26T03:38:35;8.10;;;7.30;;
9124;SDS011;4597;48.730;9.114;2023-06-26T03:41:01;7.83;;;7.07;;
9124;SDS011;4597;48.730;9.114;2023-06-26T03:43:27;8.03;;;7.23;;
9124;SDS011;4597;48.730;9.114;2023-06-26T03:45:53;8.60;;;7.70;;
9124;SDS011;4597;48.730;9.114;2023-06-26T03:48:18;8.33;;;7.50;;
9124;SDS011;4597;48.730;9.114;2023-06-26T03:50:44;8.13;;;7.43;;
9124;SDS011;4597;48.730;9.114;2023-06-26T03:53:10;8.60;;;7.70;;
9124;SDS011;4597;48.730;9.114;2023-06-26T03:55:35;8.00;;;7.30;;
9124;SDS011;4597;48.730;9.114;2023-06-26T03:58:03;7.83;;;7.13;;
9124;SDS011;4597;48.730;9.114;2023-06-26T04:00:29;8.27;;;7.47;;
9124;SDS011;4597;48.730;9.114;2023-06-26T04:02:54;8.50;;;7.70;;
9124;SDS011;4597;48.730;9.114;2023-06-26T04:05:20;9.40;;;7.80;;
9124;SDS011;4597;48.730;9.114;2023-06-26T04:07:45;9.00;;;7.67;;
9124;SDS011;4597;48.730;9.114;2023-06-26T04:10:14;8.40;;;7.60;;
9124;SDS011;4597;48.730;9.114;2023-06-26T04:12:39;9.80;;;8.37;;
9124;SDS011;4597;48.730;9.114;2023-06-26T04:15:05;8.57;;;7.67;;
9124;SDS011;4597;48.730;9.114;2023-06-26T04:17:31;9.03;;;8.23;;
9124;SDS011;4597;48.730;9.114;2023-06-26T04:19:56;9.03;;;8.13;;
9124;SDS011;4597;48.730;9.114;2023-06-26T04:22:22;8.90;;;8.00;;
9124;SDS011;4597;48.730;9.114;2023-06-26T04:24:47;8.97;;;8.07;;
9124;SDS011;4597;48.730;9.114;2023-06-26T04:27:14;8.63;;;7.73;;
9124;SDS011;4597;48.730;9.114;2023-06-26T04:29:39;8.73;;;7.93;;
9124;SDS011;4597;48.730;9.114;2023-06-26T04:32:05;8.57;;;7.87;;
9124;SDS011;4597;48.730;9.114;2023-06-26T04:34:31;9.53;;;8.63;;
9124;SDS011;4597;48.730;9.114;2023-06-26T04:36:58;9.10;;;8.20;;
9124;SDS011;4597;48.730;9.114;2023-06-26T04:39:24;9.80;;;8.27;;
9124;SDS011;4597;48.730;9.114;2023-06-26T04:41:49;8.90;;;8.00;;
9124;SDS011;4597;48.730;9.114;2023-06-26T04:44:15;9.20;;;7.63;;
9124;SDS011;4597;48.730;9.114;2023-06-26T04:46:40;8.73;;;7.93;;
9124;SDS011;4597;48.730;9.114;2023-06-26T04:49:07;9.00;;;8.13;;
9124;SDS011;4597;48.730;9.114;2023-06-26T04:51:33;9.43;;;8.53;;
9124;SDS011;4597;48.730;9.114;2023-06-26T04:53:58;8.87;;;7.97;;
9124;SDS011;4597;48.730;9.114;2023-06-26T04:56:24;9.13;;;8.23;;
9124;SDS011;4597;48.730;9.114;2023-06-26T04:58:49;9.03;;;8.23;;
9124;SDS011;4597;48.730;9.114;2023-06-26T05:01:15;9.73;;;8.83;;
9124;SDS011;4597;48.730;9.114;2023-06-26T05:03:40;11.93;;;8.90;;
9124;SDS011;4597;48.730;9.114;2023-06-26T05:06:06;9.60;;;8.70;;
9124;SDS011;4597;48.730;9.114;2023-06-26T05:08:31;10.80;;;9.70;;
9124;SDS011;4597;48.730;9.114;2023-06-26T05:10:57;9.53;;;8.63;;
9124;SDS011;4597;48.730;9.114;2023-06-26T05:13:23;10.03;;;8.97;;
9124;SDS011;4597;48.730;9.114;2023-06-26T05:15:49;9.27;;;8.17;;
9124;SDS011;4597;48.730;9.114;2023-06-26T05:18:15;9.80;;;8.90;;
9124;SDS011;4597;48.730;9.114;2023-06-26T05:20:40;10.00;;;9.00;;
9124;SDS011;4597;48.730;9.114;2023-06-26T05:23:06;9.60;;;8.67;;
9124;SDS011;4597;48.730;9.114;2023-06-26T05:25:32;11.00;;;8.37;;
9124;SDS011;4597;48.730;9.114;2023-06-26T05:28:01;10.83;;;8.50;;
9124;SDS011;4597;48.730;9.114;2023-06-26T05:30:27;9.83;;;8.83;;
9124;SDS011;4597;48.730;9.114;2023-06-26T05:32:53;8.73;;;7.97;;
9124;SDS011;4597;48.730;9.114;2023-06-26T05:35:20;10.40;;;8.73;;
9124;SDS011;4597;48.730;9.114;2023-06-26T05:37:48;9.17;;;8.37;;
9124;SDS011;4597;48.730;9.114;2023-06-26T05:40:15;9.80;;;8.90;;
9124;SDS011;4597;48.730;9.114;2023-06-26T05:42:44;9.53;;;8.53;;
9124;SDS011;4597;48.730;9.114;2023-06-26T05:45:10;10.77;;;9.37;;
9124;SDS011;4597;48.730;9.114;2023-06-26T05:47:36;9.90;;;9.00;;
9124;SDS011;4597;48.730;9.114;2023-06-26T05:50:02;10.40;;;9.33;;
9124;SDS011;4597;48.730;9.114;2023-06-26T05:52:28;10.00;;;9.00;;
9124;SDS011;4597;48.730;9.114;2023-06-26T05:54:55;10.37;;;9.27;;
9124;SDS011;4597;48.730;9.114;2023-06-26T05:57:23;10.70;;;9.67;;
9124;SDS011;4597;48.730;9.114;2023-06-26T05:59:49;9.80;;;8.80;;
9124;SDS011;4597;48.730;9.114;2023-06-26T06:02:16;10.27;;;9.27;;
9124;SDS011;4597;48.730;9.114;2023-06-26T06:04:41;9.67;;;8.77;;
9124;SDS011;4597;48.730;9.114;2023-06-26T06:07:07;9.80;;;8.83;;
9124;SDS011;4597;48.730;9.114;2023-06-26T06:09:32;9.87;;;8.87;;
9124;SDS011;4597;48.730;9.114;2023-06-26T06:11:58;9.40;;;8.50;;
9124;SDS011;4597;48.730;9.114;2023-06-26T06:14:24;22.90;;;11.03;;
9124;SDS011;4597;48.730;9.114;2023-06-26T06:16:50;9.87;;;8.70;;
9124;SDS011;4597;48.730;9.114;2023-06-26T06:19:15;10.50;;;8.73;;
9124;SDS011;4597;48.730;9.114;2023-06-26T06:21:41;11.63;;;9.00;;
9124;SDS011;4597;48.730;9.114;2023-06-26T06:24:08;10.50;;;9.43;;
9124;SDS011;4597;48.730;9.114;2023-06-26T06:26:34;9.53;;;8.53;;
9124;SDS011;4597;48.730;9.114;2023-06-26T06:29:00;9.10;;;8.30;;
9124;SDS011;4597;48.730;9.114;2023-06-26T06:31:25;9.53;;;8.63;;
9124;SDS011;4597;48.730;9.114;2023-06-26T06:33:53;9.00;;;8.20;;
9124;SDS011;4597;48.730;9.114;2023-06-26T06:36:19;13.87;;;9.00;;
9124;SDS011;4597;48.730;9.114;2023-06-26T06:38:45;8.60;;;7.80;;
9124;SDS011;4597;48.730;9.114;2023-06-26T06:41:10;8.60;;;7.90;;
9124;SDS011;4597;48.730;9.114;2023-06-26T06:43:37;9.00;;;8.20;;
9124;SDS011;4597;48.730;9.114;2023-06-26T06:46:03;8.43;;;7.63;;
9124;SDS011;4597;48.730;9.114;2023-06-26T06:48:29;9.40;;;8.50;;
9124;SDS011;4597;48.730;9.114;2023-06-26T06:50:54;9.20;;;8.03;;
9124;SDS011;4597;48.730;9.114;2023-06-26T06:53:20;9.23;;;8.43;;
9124;SDS011;4597;48.730;9.114;2023-06-26T06:55:46;10.57;;;8.13;;
9124;SDS011;4597;48.730;9.114;2023-06-26T06:58:12;8.97;;;8.17;;
9124;SDS011;4597;48.730;9.114;2023-06-26T07:00:37;10.30;;;7.53;;
9124;SDS011;4597;48.730;9.114;2023-06-26T07:03:03;8.47;;;7.70;;
9124;SDS011;4597;48.730;9.114;2023-06-26T07:05:28;8.47;;;7.67;;
9124;SDS011;4597;48.730;9.114;2023-06-26T07:07:54;8.63;;;7.83;;
9124;SDS011;4597;48.730;9.114;2023-06-26T07:10:20;8.27;;;7.47;;
9124;SDS011;4597;48.730;9.114;2023-06-26T07:12:45;8.97;;;7.83;;
9124;SDS011;4597;48.730;9.114;2023-06-26T07:15:11;7.90;;;7.13;;
9124;SDS011;4597;48.730;9.114;2023-06-26T07:17:37;9.13;;;8.13;;
9124;SDS011;4597;48.730;9.114;2023-06-26T07:20:04;9.30;;;8.40;;
9124;SDS011;4597;48.730;9.114;2023-06-26T07:22:32;8.73;;;8.00;;
9124;SDS011;4597;48.730;9.114;2023-06-26T07:24:57;8.10;;;7.37;;
9124;SDS011;4597;48.730;9.114;2023-06-26T07:27:23;9.40;;;7.67;;
9124;SDS011;4597;48.730;9.114;2023-06-26T07:29:48;8.90;;;7.90;;
9124;SDS011;4597;48.730;9.114;2023-06-26T07:32:14;9.20;;;6.93;;
9124;SDS011;4597;48.730;9.114;2023-06-26T07:34:40;8.07;;;7.20;;
9124;SDS011;4597;48.730;9.114;2023-06-26T07:37:05;10.03;;;7.80;;
9124;SDS011;4597;48.730;9.114;2023-06-26T07:39:31;11.00;;;7.80;;
9124;SDS011;4597;48.730;9.114;2023-06-26T07:41:56;11.73;;;7.72;;
9124;SDS011;4597;48.730;9.114;2023-06-26T07:44:24;8.63;;;7.50;;
9124;SDS011;4597;48.730;9.114;2023-06-26T07:46:49;13.53;;;7.13;;
9124;SDS011;4597;48.730;9.114;2023-06-26T07:49:15;10.27;;;7.70;;
9124;SDS011;4597;48.730;9.114;2023-06-26T07:51:41;13.18;;;7.60;;
9124;SDS011;4597;48.730;9.114;2023-06-26T07:54:07;14.60;;;6.95;;
9124;SDS011;4597;48.730;9.114;2023-06-26T07:59:25;13.63;;;7.57;;
9124;SDS011;4597;48.730;9.114;2023-06-26T08:01:52;17.92;;;8.32;;
9124;SDS011;4597;48.730;9.114;2023-06-26T08:04:18;14.95;;;7.15;;
9124;SDS011;4597;48.730;9.114;2023-06-26T08:06:45;14.15;;;7.72;;
9124;SDS011;4597;48.730;9.114;2023-06-26T08:09:12;15.70;;;7.40;;
9124;SDS011;4597;48.730;9.114;2023-06-26T08:11:38;11.75;;;7.10;;
9124;SDS011;4597;48.730;9.114;2023-06-26T08:14:04;8.10;;;6.35;;
9124;SDS011;4597;48.730;9.114;2023-06-26T08:16:29;10.35;;;6.70;;
9124;SDS011;4597;48.730;9.114;2023-06-26T08:18:55;9.75;;;6.63;;
9124;SDS011;4597;48.730;9.114;2023-06-26T08:21:20;13.27;;;6.80;;
9124;SDS011;4597;48.730;9.114;2023-06-26T08:23:46;10.48;;;6.70;;
9124;SDS011;4597;48.730;9.114;2023-06-26T08:26:11;13.75;;;6.97;;
9124;SDS011;4597;48.730;9.114;2023-06-26T08:28:37;8.38;;;6.10;;
9124;SDS011;4597;48.730;9.114;2023-06-26T08:31:03;7.53;;;6.22;;
9124;SDS011;4597;48.730;9.114;2023-06-26T08:33:28;7.55;;;6.10;;
9124;SDS011;4597;48.730;9.114;2023-06-26T08:35:54;8.82;;;6.03;;
9124;SDS011;4597;48.730;9.114;2023-06-26T08:38:19;7.10;;;5.57;;
9124;SDS011;4597;48.730;9.114;2023-06-26T08:40:46;5.97;;;5.30;;
9124;SDS011;4597;48.730;9.114;2023-06-26T08:43:12;7.40;;;5.20;;
9124;SDS011;4597;48.730;9.114;2023-06-26T08:45:38;5.40;;;4.97;;
9124;SDS011;4597;48.730;9.114;2023-06-26T08:48:03;5.97;;;5.35;;
9124;SDS011;4597;48.730;9.114;2023-06-26T08:50:35;6.80;;;5.22;;
9124;SDS011;4597;48.730;9.114;2023-06-26T08:55:52;5.90;;;5.40;;
9124;SDS011;4597;48.730;9.114;2023-06-26T08:58:19;6.18;;;5.68;;
9124;SDS011;4597;48.730;9.114;2023-06-26T09:00:45;6.13;;;5.57;;
9124;SDS011;4597;48.730;9.114;2023-06-26T09:03:10;9.25;;;5.38;;
9124;SDS011;4597;48.730;9.114;2023-06-26T09:05:38;6.75;;;6.15;;
9124;SDS011;4597;48.730;9.114;2023-06-26T09:08:03;7.57;;;6.10;;
9124;SDS011;4597;48.730;9.114;2023-06-26T09:10:29;6.75;;;5.93;;
9124;SDS011;4597;48.730;9.114;2023-06-26T09:12:57;9.65;;;6.55;;
9124;SDS011;4597;48.730;9.114;2023-06-26T09:15:24;6.50;;;5.90;;
9124;SDS011;4597;48.730;9.114;2023-06-26T09:17:49;6.97;;;5.75;;
9124;SDS011;4597;48.730;9.114;2023-06-26T09:20:15;6.88;;;6.22;;
9124;SDS011;4597;48.730;9.114;2023-06-26T09:22:41;7.80;;;6.45;;
9124;SDS011;4597;48.730;9.114;2023-06-26T09:25:08;6.25;;;5.72;;
9124;SDS011;4597;48.730;9.114;2023-06-26T09:27:35;6.32;;;5.82;;
9124;SDS011;4597;48.730;9.114;2023-06-26T09:30:04;9.27;;;6.70;;
9124;SDS011;4597;48.730;9.114;2023-06-26T09:32:34;7.15;;;6.43;;
9124;SDS011;4597;48.730;9.114;2023-06-26T09:35:02;7.72;;;7.03;;
9124;SDS011;4597;48.730;9.114;2023-06-26T09:37:28;7.40;;;6.70;;
9124;SDS011;4597;48.730;9.114;2023-06-26T09:39:54;7.50;;;6.78;;
9124;SDS011;4597;48.730;9.114;2023-06-26T09:42:19;7.40;;;6.75;;
9124;SDS011;4597;48.730;9.114;2023-06-26T09:44:45;7.22;;;6.57;;
9124;SDS011;4597;48.730;9.114;2023-06-26T09:47:12;7.45;;;6.75;;
9124;SDS011;4597;48.730;9.114;2023-06-26T09:49:41;7.40;;;6.70;;
9124;SDS011;4597;48.730;9.114;2023-06-26T09:52:08;9.32;;;7.43;;
9124;SDS011;4597;48.730;9.114;2023-06-26T09:54:34;6.97;;;6.32;;
9124;SDS011;4597;48.730;9.114;2023-06-26T09:57:10;9.75;;;7.07;;
9124;SDS011;4597;48.730;9.114;2023-06-26T09:59:37;12.88;;;6.78;;
9124;SDS011;4597;48.730;9.114;2023-06-26T10:02:03;8.27;;;6.68;;
9124;SDS011;4597;48.730;9.114;2023-06-26T10:04:29;10.60;;;6.78;;
9124;SDS011;4597;48.730;9.114;2023-06-26T10:06:55;9.27;;;6.45;;
9124;SDS011;4597;48.730;9.114;2023-06-26T10:09:22;11.95;;;6.55;;
9124;SDS011;4597;48.730;9.114;2023-06-26T10:12:10;12.70;;;6.90;;
9124;SDS011;4597;48.730;9.114;2023-06-26T10:14:41;12.02;;;6.47;;
9124;SDS011;4597;48.730;9.114;2023-06-26T10:17:09;7.35;;;6.72;;
9124;SDS011;4597;48.730;9.114;2023-06-26T10:19:37;7.82;;;6.78;;
9124;SDS011;4597;48.730;9.114;2023-06-26T10:22:04;8.38;;;6.93;;
9124;SDS011;4597;48.730;9.114;2023-06-26T10:24:33;13.93;;;7.15;;
9124;SDS011;4597;48.730;9.114;2023-06-26T10:27:02;10.35;;;7.25;;
9124;SDS011;4597;48.730;9.114;2023-06-26T10:29:33;7.85;;;7.15;;
9124;SDS011;4597;48.730;9.114;2023-06-26T10:32:01;7.30;;;6.80;;
9124;SDS011;4597;48.730;9.114;2023-06-26T10:34:29;9.35;;;7.60;;
9124;SDS011;4597;48.730;9.114;2023-06-26T10:36:58;7.60;;;6.85;;
9124;SDS011;4597;48.730;9.114;2023-06-26T10:39:25;7.75;;;7.05;;
9124;SDS011;4597;48.730;9.114;2023-06-26T10:41:51;8.65;;;7.18;;
9124;SDS011;4597;48.730;9.114;2023-06-26T10:44:20;9.25;;;7.50;;
9124;SDS011;4597;48.730;9.114;2023-06-26T10:46:52;9.25;;;7.07;;
9124;SDS011;4597;48.730;9.114;2023-06-26T10:49:21;8.05;;;7.25;;
9124;SDS011;4597;48.730;9.114;2023-06-26T10:51:51;8.95;;;7.60;;
9124;SDS011;4597;48.730;9.114;2023-06-26T10:54:17;8.15;;;7.25;;
9124;SDS011;4597;48.730;9.114;2023-06-26T10:56:47;7.50;;;6.82;;
9124;SDS011;4597;48.730;9.114;2023-06-26T10:59:21;11.43;;;6.82;;
9124;SDS011;4597;48.730;9.114;2023-06-26T11:01:58;8.60;;;7.20;;
9124;SDS011;4597;48.730;9.114;2023-06-26T11:04:44;7.30;;;6.60;;
9124;SDS011;4597;48.730;9.114;2023-06-26T11:07:15;8.27;;;6.97;;
9124;SDS011;4597;48.730;9.114;2023-06-26T11:09:58;8.57;;;6.97;;
9124;SDS011;4597;48.730;9.114;2023-06-26T11:15:15;10.63;;;6.82;;
9124;SDS011;4597;48.730;9.114;2023-06-26T11:17:42;7.65;;;6.95;;
9124;SDS011;4597;48.730;9.114;2023-06-26T11:20:09;11.80;;;6.90;;
9124;SDS011;4597;48.730;9.114;2023-06-26T11:22:36;7.57;;;6.88;;
9124;SDS011;4597;48.730;9.114;2023-06-26T11:25:03;7.60;;;7.00;;
9124;SDS011;4597;48.730;9.114;2023-06-26T11:27:31;9.18;;;7.30;;
9124;SDS011;4597;48.730;9.114;2023-06-26T11:30:02;7.63;;;6.80;;
9124;SDS011;4597;48.730;9.114;2023-06-26T11:32:28;7.20;;;6.68;;
9124;SDS011;4597;48.730;9.114;2023-06-26T11:34:54;7.55;;;6.85;;
9124;SDS011;4597;48.730;9.114;2023-06-26T11:37:20;7.72;;;7.00;;
9124;SDS011;4597;48.730;9.114;2023-06-26T11:39:46;7.18;;;6.68;;
9124;SDS011;4597;48.730;9.114;2023-06-26T11:42:12;13.38;;;7.50;;
9124;SDS011;4597;48.730;9.114;2023-06-26T11:44:41;11.30;;;6.88;;
9124;SDS011;4597;48.730;9.114;2023-06-26T11:47:08;9.15;;;7.32;;
9124;SDS011;4597;48.730;9.114;2023-06-26T11:49:37;9.18;;;7.53;;
9124;SDS011;4597;48.730;9.114;2023-06-26T11:52:02;8.73;;;7.82;;
9124;SDS011;4597;48.730;9.114;2023-06-26T11:54:29;6.60;;;6.00;;
9124;SDS011;4597;48.730;9.114;2023-06-26T11:56:56;8.48;;;6.75;;
9124;SDS011;4597;48.730;9.114;2023-06-26T11:59:22;7.75;;;7.05;;
9124;SDS011;4597;48.730;9.114;2023-06-26T12:01:49;7.88;;;7.18;;
9124;SDS011;4597;48.730;9.114;2023-06-26T12:04:16;7.88;;;7.07;;
9124;SDS011;4597;48.730;9.114;2023-06-26T12:06:49;7.95;;;7.07;;
9124;SDS011;4597;48.730;9.114;2023-06-26T12:09:16;11.38;;;7.88;;
9124;SDS011;4597;48.730;9.114;2023-06-26T12:11:43;7.88;;;7.18;;
9124;SDS011;4597;48.730;9.114;2023-06-26T12:14:13;7.43;;;6.70;;
9124;SDS011;4597;48.730;9.114;2023-06-26T12:16:39;8.05;;;7.22;;
9124;SDS011;4597;48.730;9.114;2023-06-26T12:19:05;8.23;;;7.60;;
9124;SDS011;4597;48.730;9.114;2023-06-26T12:24:07;7.50;;;6.90;;
9124;SDS011;4597;48.730;9.114;2023-06-26T12:26:34;9.43;;;7.13;;
9124;SDS011;4597;48.730;9.114;2023-06-26T12:29:34;7.57;;;6.78;;
9124;SDS011;4597;48.730;9.114;2023-06-26T12:31:59;7.22;;;6.20;;
9124;SDS011;4597;48.730;9.114;2023-06-26T12:34:28;9.10;;;6.82;;
9124;SDS011;4597;48.730;9.114;2023-06-26T12:37:01;7.38;;;6.63;;
9124;SDS011;4597;48.730;9.114;2023-06-26T12:39:28;7.10;;;6.47;;
9124;SDS011;4597;48.730;9.114;2023-06-26T12:44:25;6.55;;;5.90;;
9124;SDS011;4597;48.730;9.114;2023-06-26T12:47:00;7.47;;;6.00;;
9124;SDS011;4597;48.730;9.114;2023-06-26T12:49:36;7.03;;;6.28;;
9124;SDS011;4597;48.730;9.114;2023-06-26T12:52:06;6.20;;;5.70;;
9124;SDS011;4597;48.730;9.114;2023-06-26T12:54:37;6.70;;;6.03;;
9124;SDS011;4597;48.730;9.114;2023-06-26T12:57:04;6.28;;;5.70;;
9124;SDS011;4597;48.730;9.114;2023-06-26T12:59:30;5.95;;;5.55;;
9124;SDS011;4597;48.730;9.114;2023-06-26T13:01:57;6.70;;;6.03;;
9124;SDS011;4597;48.730;9.114;2023-06-26T13:04:23;6.07;;;5.50;;
9124;SDS011;4597;48.730;9.114;2023-06-26T13:06:48;6.88;;;5.53;;
9124;SDS011;4597;48.730;9.114;2023-06-26T13:09:14;8.65;;;5.90;;
9124;SDS011;4597;48.730;9.114;2023-06-26T13:11:40;9.65;;;5.95;;
9124;SDS011;4597;48.730;9.114;2023-06-26T13:14:06;5.47;;;4.97;;
9124;SDS011;4597;48.730;9.114;2023-06-26T13:16:32;6.40;;;5.68;;
9124;SDS011;4597;48.730;9.114;2023-06-26T13:18:58;5.78;;;5.20;;
9124;SDS011;4597;48.730;9.114;2023-06-26T13:21:24;5.13;;;4.63;;
9124;SDS011;4597;48.730;9.114;2023-06-26T13:23:50;5.82;;;4.85;;
9124;SDS011;4597;48.730;9.114;2023-06-26T13:26:15;6.20;;;5.60;;
9124;SDS011;4597;48.730;9.114;2023-06-26T13:28:41;6.70;;;5.07;;
9124;SDS011;4597;48.730;9.114;2023-06-26T13:31:07;6.20;;;4.70;;
9124;SDS011;4597;48.730;9.114;2023-06-26T13:33:32;7.25;;;5.20;;
9124;SDS011;4597;48.730;9.114;2023-06-26T13:35:58;8.85;;;4.50;;
9124;SDS011;4597;48.730;9.114;2023-06-26T13:38:24;7.80;;;4.32;;
9124;SDS011;4597;48.730;9.114;2023-06-26T13:40:53;7.38;;;4.30;;
9124;SDS011;4597;48.730;9.114;2023-06-26T13:43:20;5.88;;;4.22;;
9124;SDS011;4597;48.730;9.114;2023-06-26T13:45:47;7.05;;;5.07;;
9124;SDS011;4597;48.730;9.114;2023-06-26T13:48:12;5.70;;;5.20;;
9124;SDS011;4597;48.730;9.114;2023-06-26T13:50:38;6.20;;;5.13;;
9124;SDS011;4597;48.730;9.114;2023-06-26T13:53:03;4.25;;;3.92;;
9124;SDS011;4597;48.730;9.114;2023-06-26T13:55:29;4.20;;;3.90;;
9124;SDS011;4597;48.730;9.114;2023-06-26T13:57:55;6.28;;;3.63;;
9124;SDS011;4597;48.730;9.114;2023-06-26T14:00:21;4.32;;;4.03;;
9124;SDS011;4597;48.730;9.114;2023-06-26T14:02:47;4.85;;;4.40;;
9124;SDS011;4597;48.730;9.114;2023-06-26T14:05:13;5.10;;;4.70;;
9124;SDS011;4597;48.730;9.114;2023-06-26T14:07:39;5.07;;;4.63;;
9124;SDS011;4597;48.730;9.114;2023-06-26T14:10:05;6.53;;;5.00;;
9124;SDS011;4597;48.730;9.114;2023-06-26T14:12:31;4.97;;;4.57;;
9124;SDS011;4597;48.730;9.114;2023-06-26T14:14:57;5.15;;;4.75;;
9124;SDS011;4597;48.730;9.114;2023-06-26T14:17:23;6.85;;;4.60;;
9124;SDS011;4597;48.730;9.114;2023-06-26T14:19:50;5.10;;;4.22;;
9124;SDS011;4597;48.730;9.114;2023-06-26T14:22:17;4.72;;;4.25;;
9124;SDS011;4597;48.730;9.114;2023-06-26T14:24:42;4.75;;;4.35;;
9124;SDS011;4597;48.730;9.114;2023-06-26T14:27:08;4.38;;;4.03;;
9124;SDS011;4597;48.730;9.114;2023-06-26T14:29:33;5.10;;;4.40;;
9124;SDS011;4597;48.730;9.114;2023-06-26T14:32:00;5.25;;;4.15;;
9124;SDS011;4597;48.730;9.114;2023-06-26T14:34:26;4.55;;;4.25;;
9124;SDS011;4597;48.730;9.114;2023-06-26T14:36:51;5.30;;;4.80;;
9124;SDS011;4597;48.730;9.114;2023-06-26T14:39:17;4.90;;;4.30;;
9124;SDS011;4597;48.730;9.114;2023-06-26T14:41:42;6.25;;;4.72;;
9124;SDS011;4597;48.730;9.114;2023-06-26T14:44:08;5.15;;;4.75;;
9124;SDS011;4597;48.730;9.114;2023-06-26T14:46:35;7.05;;;5.28;;
9124;SDS011;4597;48.730;9.114;2023-06-26T14:49:02;5.13;;;4.72;;
9124;SDS011;4597;48.730;9.114;2023-06-26T14:51:28;5.45;;;5.05;;
9124;SDS011;4597;48.730;9.114;2023-06-26T14:53:54;5.85;;;5.30;;
9124;SDS011;4597;48.730;9.114;2023-06-26T14:56:19;5.93;;;5.53;;
9124;SDS011;4597;48.730;9.114;2023-06-26T14:58:45;6.68;;;6.05;;
9124;SDS011;4597;48.730;9.114;2023-06-26T15:01:14;6.75;;;5.90;;
9124;SDS011;4597;48.730;9.114;2023-06-26T15:03:44;6.15;;;5.57;;
9124;SDS011;4597;48.730;9.114;2023-06-26T15:06:10;7.25;;;6.18;;
9124;SDS011;4597;48.730;9.114;2023-06-26T15:08:36;7.88;;;6.75;;
9124;SDS011;4597;48.730;9.114;2023-06-26T15:11:01;7.10;;;6.50;;
9124;SDS011;4597;48.730;9.114;2023-06-26T15:13:28;7.78;;;6.80;;
9124;SDS011;4597;48.730;9.114;2023-06-26T15:15:54;7.32;;;6.63;;
9124;SDS011;4597;48.730;9.114;2023-06-26T15:18:19;7.53;;;6.30;;
9124;SDS011;4597;48.730;9.114;2023-06-26T15:20:45;6.50;;;6.00;;
9124;SDS011;4597;48.730;9.114;2023-06-26T15:23:10;7.38;;;6.38;;
9124;SDS011;4597;48.730;9.114;2023-06-26T15:25:36;7.53;;;6.80;;
9124;SDS011;4597;48.730;9.114;2023-06-26T15:28:02;7.15;;;6.50;;